sensor_id;sensor_type;location;lat;lon;timestamp;P1;P2;P0
72307;PMS5003;60257;42.638;23.376;2023-04-29T00:00:33;11.00;11.00;7.00
72307;PMS5003;60257;42.638;23.376;2023-04-29T00:02:59;28.33;22.67;13.33
72307;PMS5003;60257;42.638;23.376;2023-04-29T00:05:25;24.00;19.67;12.00
72307;PMS5003;60257;42.638;23.376;2023-04-29T00:07:51;16.67;16.33;10.00
72307;PMS5003;60257;42.638;23.376;2023-04-29T00:10:17;16.67;16.67;11.00
72307;PMS5003;60257;42.638;23.376;2023-04-29T00:12:42;21.33;17.67;11.33
72307;PMS5003;60257;42.638;23.376;2023-04-29T00:15:08;20.67;20.67;13.00
72307;PMS5003;60257;42.638;23.376;2023-04-29T00:17:34;18.67;17.00;11.00
72307;PMS5003;60257;42.638;23.376;2023-04-29T00:19:59;19.67;19.00;11.00
72307;PMS5003;60257;42.638;23.376;2023-04-29T00:22:25;19.67;19.67;11.67
72307;PMS5003;60257;42.638;23.376;2023-04-29T00:24:50;17.67;16.00;11.00
72307;PMS5003;60257;42.638;23.376;2023-04-29T00:27:17;20.33;17.00;12.00
72307;PMS5003;60257;42.638;23.376;2023-04-29T00:29:42;18.33;16.33;11.00
72307;PMS5003;60257;42.638;23.376;2023-04-29T00:32:08;18.00;17.00;11.00
72307;PMS5003;60257;42.638;23.376;2023-04-29T00:34:33;17.67;17.67;13.33
72307;PMS5003;60257;42.638;23.376;2023-04-29T00:36:59;15.33;11.33;8.00
72307;PMS5003;60257;42.638;23.376;2023-04-29T00:39:24;15.33;13.00;8.00
72307;PMS5003;60257;42.638;23.376;2023-04-29T00:41:50;18.67;16.67;10.00
72307;PMS5003;60257;42.638;23.376;2023-04-29T00:44:16;22.33;20.00;11.33
72307;PMS5003;60257;42.638;23.376;2023-04-29T00:46:41;18.33;16.33;11.33
72307;PMS5003;60257;42.638;23.376;2023-04-29T00:49:07;20.00;20.00;12.67
72307;PMS5003;60257;42.638;23.376;2023-04-29T00:51:33;21.33;19.00;12.00
72307;PMS5003;60257;42.638;23.376;2023-04-29T00:54:01;25.67;25.67;18.33
72307;PMS5003;60257;42.638;23.376;2023-04-29T00:56:28;24.00;21.67;14.33
72307;PMS5003;60257;42.638;23.376;2023-04-29T00:58:58;24.33;24.00;15.33
72307;PMS5003;60257;42.638;23.376;2023-04-29T01:01:24;21.00;19.67;15.00
72307;PMS5003;60257;42.638;23.376;2023-04-29T01:03:50;21.33;21.00;15.00
72307;PMS5003;60257;42.638;23.376;2023-04-29T01:11:48;28.50;24.25;16.00
72307;PMS5003;60257;42.638;23.376;2023-04-29T01:14:23;22.67;22.33;15.00
72307;PMS5003;60257;42.638;23.376;2023-04-29T01:16:50;18.33;16.00;11.00
72307;PMS5003;60257;42.638;23.376;2023-04-29T01:19:25;26.67;25.33;16.00
72307;PMS5003;60257;42.638;23.376;2023-04-29T01:22:09;24.00;24.00;16.00
72307;PMS5003;60257;42.638;23.376;2023-04-29T01:24:35;27.33;26.00;18.33
72307;PMS5003;60257;42.638;23.376;2023-04-29T01:27:07;23.00;23.00;15.00
72307;PMS5003;60257;42.638;23.376;2023-04-29T01:29:45;28.00;25.00;17.33
72307;PMS5003;60257;42.638;23.376;2023-04-29T01:32:21;24.00;22.33;15.00
72307;PMS5003;60257;42.638;23.376;2023-04-29T01:35:03;20.00;18.67;13.33
72307;PMS5003;60257;42.638;23.376;2023-04-29T01:37:44;22.33;20.33;12.67
72307;PMS5003;60257;42.638;23.376;2023-04-29T01:40:21;23.00;20.33;12.00
72307;PMS5003;60257;42.638;23.376;2023-04-29T01:42:58;18.33;18.33;13.33
72307;PMS5003;60257;42.638;23.376;2023-04-29T01:45:26;20.00;20.00;12.33
72307;PMS5003;60257;42.638;23.376;2023-04-29T01:47:55;19.33;17.00;10.67
72307;PMS5003;60257;42.638;23.376;2023-04-29T01:50:23;18.67;18.67;14.00
72307;PMS5003;60257;42.638;23.376;2023-04-29T01:52:49;19.00;16.67;11.00
72307;PMS5003;60257;42.638;23.376;2023-04-29T01:55:14;17.50;15.00;10.00
72307;PMS5003;60257;42.638;23.376;2023-04-29T01:57:40;18.67;18.67;13.33
72307;PMS5003;60257;42.638;23.376;2023-04-29T02:00:05;18.67;15.00;11.00
72307;PMS5003;60257;42.638;23.376;2023-04-29T02:02:33;20.67;16.33;9.67
72307;PMS5003;60257;42.638;23.376;2023-04-29T02:04:58;21.67;20.00;12.33
72307;PMS5003;60257;42.638;23.376;2023-04-29T02:07:24;21.00;18.33;12.33
72307;PMS5003;60257;42.638;23.376;2023-04-29T02:09:49;22.33;18.67;12.33
72307;PMS5003;60257;42.638;23.376;2023-04-29T02:12:15;19.00;16.00;10.00
72307;PMS5003;60257;42.638;23.376;2023-04-29T02:14:40;19.00;18.00;12.33
72307;PMS5003;60257;42.638;23.376;2023-04-29T02:17:06;19.00;18.67;13.00
72307;PMS5003;60257;42.638;23.376;2023-04-29T02:19:31;21.00;19.00;12.33
72307;PMS5003;60257;42.638;23.376;2023-04-29T02:21:57;19.33;18.00;11.33
72307;PMS5003;60257;42.638;23.376;2023-04-29T02:24:23;20.33;18.67;13.00
72307;PMS5003;60257;42.638;23.376;2023-04-29T02:26:51;20.67;18.00;11.67
72307;PMS5003;60257;42.638;23.376;2023-04-29T02:29:17;20.33;19.33;11.67
72307;PMS5003;60257;42.638;23.376;2023-04-29T02:31:42;14.00;12.33;7.67
72307;PMS5003;60257;42.638;23.376;2023-04-29T02:34:08;19.33;18.67;13.67
72307;PMS5003;60257;42.638;23.376;2023-04-29T02:36:33;20.33;19.00;14.00
72307;PMS5003;60257;42.638;23.376;2023-04-29T02:38:59;22.00;19.00;12.33
72307;PMS5003;60257;42.638;23.376;2023-04-29T02:41:24;24.33;20.33;14.33
72307;PMS5003;60257;42.638;23.376;2023-04-29T02:43:50;17.00;16.33;10.67
72307;PMS5003;60257;42.638;23.376;2023-04-29T02:46:15;18.67;18.67;14.00
72307;PMS5003;60257;42.638;23.376;2023-04-29T02:48:42;18.33;15.67;11.00
72307;PMS5003;60257;42.638;23.376;2023-04-29T02:51:08;19.67;18.67;12.33
72307;PMS5003;60257;42.638;23.376;2023-04-29T02:53:34;22.75;20.25;13.25
72307;PMS5003;60257;42.638;23.376;2023-04-29T02:56:00;22.00;19.00;13.67
72307;PMS5003;60257;42.638;23.376;2023-04-29T02:58:25;23.75;21.00;13.75
72307;PMS5003;60257;42.638;23.376;2023-04-29T03:00:51;19.75;19.75;14.00
72307;PMS5003;60257;42.638;23.376;2023-04-29T03:03:16;25.67;23.00;14.00
72307;PMS5003;60257;42.638;23.376;2023-04-29T03:05:42;28.00;22.75;15.00
72307;PMS5003;60257;42.638;23.376;2023-04-29T03:08:08;22.50;21.00;13.25
72307;PMS5003;60257;42.638;23.376;2023-04-29T03:10:34;25.50;22.00;16.00
72307;PMS5003;60257;42.638;23.376;2023-04-29T03:13:00;20.25;20.25;14.75
72307;PMS5003;60257;42.638;23.376;2023-04-29T03:15:25;20.50;20.50;14.00
72307;PMS5003;60257;42.638;23.376;2023-04-29T03:17:51;25.75;23.75;13.75
72307;PMS5003;60257;42.638;23.376;2023-04-29T03:20:16;28.50;24.50;15.75
72307;PMS5003;60257;42.638;23.376;2023-04-29T03:22:42;29.50;27.00;18.75
72307;PMS5003;60257;42.638;23.376;2023-04-29T03:25:07;23.75;23.75;14.25
72307;PMS5003;60257;42.638;23.376;2023-04-29T03:27:34;34.25;30.75;19.25
72307;PMS5003;60257;42.638;23.376;2023-04-29T03:30:00;28.50;25.00;17.75
72307;PMS5003;60257;42.638;23.376;2023-04-29T03:32:26;27.25;26.75;18.00
72307;PMS5003;60257;42.638;23.376;2023-04-29T03:34:52;33.75;32.50;22.50
72307;PMS5003;60257;42.638;23.376;2023-04-29T03:37:18;37.25;34.50;22.50
72307;PMS5003;60257;42.638;23.376;2023-04-29T03:39:44;36.00;32.25;21.50
72307;PMS5003;60257;42.638;23.376;2023-04-29T03:42:10;28.25;24.50;15.00
72307;PMS5003;60257;42.638;23.376;2023-04-29T03:44:35;37.50;34.75;19.25
72307;PMS5003;60257;42.638;23.376;2023-04-29T03:47:01;31.25;25.25;18.00
72307;PMS5003;60257;42.638;23.376;2023-04-29T03:49:26;26.00;26.00;17.25
72307;PMS5003;60257;42.638;23.376;2023-04-29T03:51:51;29.50;26.25;18.00
72307;PMS5003;60257;42.638;23.376;2023-04-29T03:54:17;28.25;26.50;18.75
72307;PMS5003;60257;42.638;23.376;2023-04-29T03:56:43;28.50;27.00;17.00
72307;PMS5003;60257;42.638;23.376;2023-04-29T03:59:08;34.50;31.75;19.50
72307;PMS5003;60257;42.638;23.376;2023-04-29T04:01:34;23.50;22.00;14.00
72307;PMS5003;60257;42.638;23.376;2023-04-29T04:03:59;27.50;25.75;15.50
72307;PMS5003;60257;42.638;23.376;2023-04-29T04:06:25;21.50;21.00;13.50
72307;PMS5003;60257;42.638;23.376;2023-04-29T04:08:50;21.25;19.00;13.00
72307;PMS5003;60257;42.638;23.376;2023-04-29T04:11:16;24.00;22.50;13.50
72307;PMS5003;60257;42.638;23.376;2023-04-29T04:13:42;19.00;16.67;11.00
72307;PMS5003;60257;42.638;23.376;2023-04-29T04:16:08;17.00;17.00;11.67
72307;PMS5003;60257;42.638;23.376;2023-04-29T04:18:35;18.00;17.67;10.33
72307;PMS5003;60257;42.638;23.376;2023-04-29T04:21:06;26.00;23.67;14.00
72307;PMS5003;60257;42.638;23.376;2023-04-29T04:23:33;32.00;23.00;18.00
72307;PMS5003;60257;42.638;23.376;2023-04-29T04:25:58;25.33;23.67;17.33
72307;PMS5003;60257;42.638;23.376;2023-04-29T04:28:24;28.33;23.33;15.33
72307;PMS5003;60257;42.638;23.376;2023-04-29T04:30:49;21.67;19.67;13.33
72307;PMS5003;60257;42.638;23.376;2023-04-29T04:33:15;28.67;26.00;15.67
72307;PMS5003;60257;42.638;23.376;2023-04-29T04:35:41;23.67;21.00;12.33
72307;PMS5003;60257;42.638;23.376;2023-04-29T04:38:07;17.67;17.67;12.00
72307;PMS5003;60257;42.638;23.376;2023-04-29T04:40:33;23.67;23.67;15.00
72307;PMS5003;60257;42.638;23.376;2023-04-29T04:42:58;19.00;19.00;11.67
72307;PMS5003;60257;42.638;23.376;2023-04-29T04:45:24;22.33;21.00;15.33
72307;PMS5003;60257;42.638;23.376;2023-04-29T04:47:52;25.33;24.00;15.33
72307;PMS5003;60257;42.638;23.376;2023-04-29T04:50:18;22.67;21.33;15.00
72307;PMS5003;60257;42.638;23.376;2023-04-29T04:52:44;23.33;21.00;14.00
72307;PMS5003;60257;42.638;23.376;2023-04-29T04:55:10;22.33;18.00;11.00
72307;PMS5003;60257;42.638;23.376;2023-04-29T04:57:35;19.33;15.00;8.00
72307;PMS5003;60257;42.638;23.376;2023-04-29T05:00:01;21.00;18.33;12.00
72307;PMS5003;60257;42.638;23.376;2023-04-29T05:02:28;25.00;25.00;15.67
72307;PMS5003;60257;42.638;23.376;2023-04-29T05:04:53;24.00;22.67;14.67
72307;PMS5003;60257;42.638;23.376;2023-04-29T05:07:19;24.33;21.00;14.00
72307;PMS5003;60257;42.638;23.376;2023-04-29T05:09:44;26.00;23.00;13.67
72307;PMS5003;60257;42.638;23.376;2023-04-29T05:12:10;25.33;23.33;14.67
72307;PMS5003;60257;42.638;23.376;2023-04-29T05:14:35;23.33;19.67;13.67
72307;PMS5003;60257;42.638;23.376;2023-04-29T05:17:00;18.00;17.33;13.67
72307;PMS5003;60257;42.638;23.376;2023-04-29T05:19:26;24.67;24.67;13.33
72307;PMS5003;60257;42.638;23.376;2023-04-29T05:21:52;26.33;23.00;13.00
72307;PMS5003;60257;42.638;23.376;2023-04-29T05:24:17;23.67;22.67;14.33
72307;PMS5003;60257;42.638;23.376;2023-04-29T05:26:43;22.67;22.67;14.00
72307;PMS5003;60257;42.638;23.376;2023-04-29T05:29:09;23.33;21.67;13.67
72307;PMS5003;60257;42.638;23.376;2023-04-29T05:31:35;18.00;17.00;13.33
72307;PMS5003;60257;42.638;23.376;2023-04-29T05:34:01;24.33;22.00;15.00
72307;PMS5003;60257;42.638;23.376;2023-04-29T05:36:27;22.33;22.33;15.00
72307;PMS5003;60257;42.638;23.376;2023-04-29T05:38:52;25.67;22.00;15.33
72307;PMS5003;60257;42.638;23.376;2023-04-29T05:41:18;17.33;14.33;8.67
72307;PMS5003;60257;42.638;23.376;2023-04-29T05:43:44;24.67;24.00;16.67
72307;PMS5003;60257;42.638;23.376;2023-04-29T05:46:09;24.00;22.00;15.00
72307;PMS5003;60257;42.638;23.376;2023-04-29T05:48:35;24.67;22.00;15.00
72307;PMS5003;60257;42.638;23.376;2023-04-29T05:51:00;21.00;20.00;15.00
72307;PMS5003;60257;42.638;23.376;2023-04-29T05:53:26;19.00;17.00;12.67
72307;PMS5003;60257;42.638;23.376;2023-04-29T05:55:52;21.00;20.00;12.67
72307;PMS5003;60257;42.638;23.376;2023-04-29T05:58:17;28.00;23.33;15.67
72307;PMS5003;60257;42.638;23.376;2023-04-29T06:00:42;19.67;18.00;14.67
72307;PMS5003;60257;42.638;23.376;2023-04-29T06:03:08;24.33;23.00;14.00
72307;PMS5003;60257;42.638;23.376;2023-04-29T06:05:35;19.33;19.33;14.67
72307;PMS5003;60257;42.638;23.376;2023-04-29T06:08:01;24.67;24.00;15.67
72307;PMS5003;60257;42.638;23.376;2023-04-29T06:10:27;25.00;23.33;17.00
72307;PMS5003;60257;42.638;23.376;2023-04-29T06:12:52;20.67;20.00;15.00
72307;PMS5003;60257;42.638;23.376;2023-04-29T06:15:18;21.00;18.00;13.33
72307;PMS5003;60257;42.638;23.376;2023-04-29T06:17:43;19.00;19.00;14.33
72307;PMS5003;60257;42.638;23.376;2023-04-29T06:20:09;23.67;22.67;16.00
72307;PMS5003;60257;42.638;23.376;2023-04-29T06:22:35;19.67;19.67;13.33
72307;PMS5003;60257;42.638;23.376;2023-04-29T06:25:00;29.00;24.67;17.00
72307;PMS5003;60257;42.638;23.376;2023-04-29T06:27:26;23.00;22.67;16.67
72307;PMS5003;60257;42.638;23.376;2023-04-29T06:29:52;22.67;20.67;13.67
72307;PMS5003;60257;42.638;23.376;2023-04-29T06:32:18;20.00;19.33;13.33
72307;PMS5003;60257;42.638;23.376;2023-04-29T06:34:43;24.00;24.00;16.67
72307;PMS5003;60257;42.638;23.376;2023-04-29T06:37:09;25.00;22.00;14.00
72307;PMS5003;60257;42.638;23.376;2023-04-29T06:39:35;29.00;27.00;18.00
72307;PMS5003;60257;42.638;23.376;2023-04-29T06:42:00;28.67;26.00;17.00
72307;PMS5003;60257;42.638;23.376;2023-04-29T06:44:26;34.00;34.00;23.00
72307;PMS5003;60257;42.638;23.376;2023-04-29T06:46:51;34.67;31.33;23.00
72307;PMS5003;60257;42.638;23.376;2023-04-29T06:49:17;32.67;29.67;22.00
72307;PMS5003;60257;42.638;23.376;2023-04-29T06:51:43;39.67;35.67;21.33
72307;PMS5003;60257;42.638;23.376;2023-04-29T06:54:08;39.33;33.33;24.00
72307;PMS5003;60257;42.638;23.376;2023-04-29T06:56:33;30.33;29.67;20.00
72307;PMS5003;60257;42.638;23.376;2023-04-29T06:58:59;32.33;31.00;20.00
72307;PMS5003;60257;42.638;23.376;2023-04-29T07:01:25;33.67;33.00;21.33
72307;PMS5003;60257;42.638;23.376;2023-04-29T07:03:50;30.00;28.00;19.67
72307;PMS5003;60257;42.638;23.376;2023-04-29T07:06:16;32.33;30.00;19.67
72307;PMS5003;60257;42.638;23.376;2023-04-29T07:08:42;33.67;31.33;20.67
72307;PMS5003;60257;42.638;23.376;2023-04-29T07:11:07;34.33;33.00;22.67
72307;PMS5003;60257;42.638;23.376;2023-04-29T07:13:32;33.67;30.00;18.67
72307;PMS5003;60257;42.638;23.376;2023-04-29T07:15:58;26.67;25.67;21.67
72307;PMS5003;60257;42.638;23.376;2023-04-29T07:18:24;29.00;28.00;19.67
72307;PMS5003;60257;42.638;23.376;2023-04-29T07:20:50;35.67;32.67;21.67
72307;PMS5003;60257;42.638;23.376;2023-04-29T07:23:16;27.33;27.33;21.33
72307;PMS5003;60257;42.638;23.376;2023-04-29T07:25:42;36.33;30.67;23.00
72307;PMS5003;60257;42.638;23.376;2023-04-29T07:28:07;32.67;31.33;22.00
72307;PMS5003;60257;42.638;23.376;2023-04-29T07:30:33;38.33;33.67;21.33
72307;PMS5003;60257;42.638;23.376;2023-04-29T07:32:59;31.00;30.00;23.00
72307;PMS5003;60257;42.638;23.376;2023-04-29T07:35:25;30.00;27.67;17.00
72307;PMS5003;60257;42.638;23.376;2023-04-29T07:37:51;32.33;30.67;22.00
72307;PMS5003;60257;42.638;23.376;2023-04-29T07:40:16;26.00;24.33;19.00
72307;PMS5003;60257;42.638;23.376;2023-04-29T07:42:42;30.00;29.00;18.00
72307;PMS5003;60257;42.638;23.376;2023-04-29T07:45:08;31.67;30.00;21.33
72307;PMS5003;60257;42.638;23.376;2023-04-29T07:47:34;31.33;28.00;19.67
72307;PMS5003;60257;42.638;23.376;2023-04-29T07:49:59;35.33;32.33;19.00
72307;PMS5003;60257;42.638;23.376;2023-04-29T07:52:25;26.67;26.67;19.00
72307;PMS5003;60257;42.638;23.376;2023-04-29T07:54:50;24.00;22.67;13.67
72307;PMS5003;60257;42.638;23.376;2023-04-29T07:57:16;31.33;30.33;21.00
72307;PMS5003;60257;42.638;23.376;2023-04-29T07:59:41;31.33;29.00;19.00
72307;PMS5003;60257;42.638;23.376;2023-04-29T08:02:07;29.67;29.67;20.33
72307;PMS5003;60257;42.638;23.376;2023-04-29T08:04:32;32.67;32.67;22.00
72307;PMS5003;60257;42.638;23.376;2023-04-29T08:06:58;31.67;27.33;20.00
72307;PMS5003;60257;42.638;23.376;2023-04-29T08:09:23;27.00;27.00;17.33
72307;PMS5003;60257;42.638;23.376;2023-04-29T08:11:49;23.00;21.67;15.00
72307;PMS5003;60257;42.638;23.376;2023-04-29T08:14:14;31.00;28.67;19.67
72307;PMS5003;60257;42.638;23.376;2023-04-29T08:16:40;23.00;19.00;15.67
72307;PMS5003;60257;42.638;23.376;2023-04-29T08:19:05;23.00;21.00;16.00
72307;PMS5003;60257;42.638;23.376;2023-04-29T08:21:31;21.00;20.00;13.00
72307;PMS5003;60257;42.638;23.376;2023-04-29T08:23:56;24.00;21.33;14.67
72307;PMS5003;60257;42.638;23.376;2023-04-29T08:26:22;23.33;23.00;15.00
72307;PMS5003;60257;42.638;23.376;2023-04-29T08:28:48;23.67;23.67;16.67
72307;PMS5003;60257;42.638;23.376;2023-04-29T08:31:17;21.67;21.00;13.00
72307;PMS5003;60257;42.638;23.376;2023-04-29T08:33:46;16.33;14.00;13.00
72307;PMS5003;60257;42.638;23.376;2023-04-29T08:36:12;21.00;17.67;13.67
72307;PMS5003;60257;42.638;23.376;2023-04-29T08:38:38;22.33;18.00;13.00
72307;PMS5003;60257;42.638;23.376;2023-04-29T08:41:03;20.67;18.33;13.00
72307;PMS5003;60257;42.638;23.376;2023-04-29T08:43:34;17.33;16.00;12.67
72307;PMS5003;60257;42.638;23.376;2023-04-29T08:46:01;24.33;22.33;13.33
72307;PMS5003;60257;42.638;23.376;2023-04-29T08:48:29;16.67;16.67;12.00
72307;PMS5003;60257;42.638;23.376;2023-04-29T08:50:54;24.00;21.00;13.00
72307;PMS5003;60257;42.638;23.376;2023-04-29T08:53:22;15.67;15.33;11.67
72307;PMS5003;60257;42.638;23.376;2023-04-29T08:55:48;15.33;14.00;10.00
72307;PMS5003;60257;42.638;23.376;2023-04-29T08:58:14;19.67;18.33;11.33
72307;PMS5003;60257;42.638;23.376;2023-04-29T09:00:43;14.00;14.00;11.00
72307;PMS5003;60257;42.638;23.376;2023-04-29T09:05:56;14.67;14.00;10.00
72307;PMS5003;60257;42.638;23.376;2023-04-29T09:08:24;17.33;14.33;11.33
72307;PMS5003;60257;42.638;23.376;2023-04-29T09:10:51;13.00;13.00;10.00
72307;PMS5003;60257;42.638;23.376;2023-04-29T09:13:23;19.67;16.00;11.00
72307;PMS5003;60257;42.638;23.376;2023-04-29T09:15:49;9.33;9.33;5.33
72307;PMS5003;60257;42.638;23.376;2023-04-29T09:21:13;14.50;14.25;9.50
72307;PMS5003;60257;42.638;23.376;2023-04-29T09:23:50;10.00;10.00;8.00
72307;PMS5003;60257;42.638;23.376;2023-04-29T09:26:17;13.67;12.67;9.00
72307;PMS5003;60257;42.638;23.376;2023-04-29T09:28:44;13.50;13.50;8.50
72307;PMS5003;60257;42.638;23.376;2023-04-29T09:31:12;15.00;14.25;10.00
72307;PMS5003;60257;42.638;23.376;2023-04-29T09:33:54;16.00;16.00;12.00
72307;PMS5003;60257;42.638;23.376;2023-04-29T09:36:37;17.67;16.33;11.00
72307;PMS5003;60257;42.638;23.376;2023-04-29T09:39:06;17.33;17.00;13.00
72307;PMS5003;60257;42.638;23.376;2023-04-29T09:41:42;17.50;17.25;11.75
72307;PMS5003;60257;42.638;23.376;2023-04-29T09:44:17;14.75;14.75;11.75
72307;PMS5003;60257;42.638;23.376;2023-04-29T09:49:32;16.50;15.00;10.00
72307;PMS5003;60257;42.638;23.376;2023-04-29T09:52:13;15.50;15.25;10.25
72307;PMS5003;60257;42.638;23.376;2023-04-29T09:54:41;13.25;12.75;9.25
72307;PMS5003;60257;42.638;23.376;2023-04-29T09:57:08;12.00;11.75;8.75
72307;PMS5003;60257;42.638;23.376;2023-04-29T09:59:35;15.75;13.50;10.50
72307;PMS5003;60257;42.638;23.376;2023-04-29T10:02:15;17.75;15.75;12.00
72307;PMS5003;60257;42.638;23.376;2023-04-29T10:04:45;13.75;13.75;9.50
72307;PMS5003;60257;42.638;23.376;2023-04-29T10:07:15;16.50;16.25;11.00
72307;PMS5003;60257;42.638;23.376;2023-04-29T10:09:44;17.50;17.00;12.25
72307;PMS5003;60257;42.638;23.376;2023-04-29T10:12:15;15.25;15.25;11.25
72307;PMS5003;60257;42.638;23.376;2023-04-29T10:14:44;16.75;14.75;11.50
72307;PMS5003;60257;42.638;23.376;2023-04-29T10:17:19;20.75;19.00;12.75
72307;PMS5003;60257;42.638;23.376;2023-04-29T10:20:11;22.00;21.00;14.50
72307;PMS5003;60257;42.638;23.376;2023-04-29T10:22:45;24.00;22.67;15.67
72307;PMS5003;60257;42.638;23.376;2023-04-29T10:25:14;22.75;20.75;13.50
72307;PMS5003;60257;42.638;23.376;2023-04-29T10:27:41;18.25;17.00;11.75
72307;PMS5003;60257;42.638;23.376;2023-04-29T10:30:10;17.25;16.00;10.50
72307;PMS5003;60257;42.638;23.376;2023-04-29T10:32:41;25.00;23.25;15.75
72307;PMS5003;60257;42.638;23.376;2023-04-29T10:35:08;26.25;23.25;17.50
72307;PMS5003;60257;42.638;23.376;2023-04-29T10:37:42;19.00;19.00;13.50
72307;PMS5003;60257;42.638;23.376;2023-04-29T10:40:11;20.50;19.25;13.50
72307;PMS5003;60257;42.638;23.376;2023-04-29T10:53:12;19.00;18.00;12.50
72307;PMS5003;60257;42.638;23.376;2023-04-29T10:55:39;19.25;16.75;11.75
72307;PMS5003;60257;42.638;23.376;2023-04-29T10:58:32;25.75;22.75;16.50
72307;PMS5003;60257;42.638;23.376;2023-04-29T11:01:01;21.75;21.50;14.25
72307;PMS5003;60257;42.638;23.376;2023-04-29T11:06:36;21.00;20.50;13.50
72307;PMS5003;60257;42.638;23.376;2023-04-29T11:11:47;11.50;11.50;9.00
72307;PMS5003;60257;42.638;23.376;2023-04-29T11:14:34;7.00;5.50;1.00
72307;PMS5003;60257;42.638;23.376;2023-04-29T11:17:02;12.25;11.00;8.00
72307;PMS5003;60257;42.638;23.376;2023-04-29T11:19:35;8.25;7.50;6.50
72307;PMS5003;60257;42.638;23.376;2023-04-29T11:24:34;14.25;11.50;8.50
72307;PMS5003;60257;42.638;23.376;2023-04-29T11:27:01;11.50;11.50;7.75
72307;PMS5003;60257;42.638;23.376;2023-04-29T11:29:30;15.25;15.25;10.25
72307;PMS5003;60257;42.638;23.376;2023-04-29T11:32:00;12.75;10.00;6.75
72307;PMS5003;60257;42.638;23.376;2023-04-29T11:34:26;10.50;9.50;5.75
72307;PMS5003;60257;42.638;23.376;2023-04-29T11:36:51;10.50;10.50;7.00
72307;PMS5003;60257;42.638;23.376;2023-04-29T11:39:17;11.75;10.00;6.50
72307;PMS5003;60257;42.638;23.376;2023-04-29T11:41:43;13.25;12.75;8.25
72307;PMS5003;60257;42.638;23.376;2023-04-29T11:44:08;13.25;12.75;9.00
72307;PMS5003;60257;42.638;23.376;2023-04-29T11:46:36;11.00;11.00;6.25
72307;PMS5003;60257;42.638;23.376;2023-04-29T11:49:01;10.00;9.25;7.00
72307;PMS5003;60257;42.638;23.376;2023-04-29T11:51:27;9.75;7.00;4.00
72307;PMS5003;60257;42.638;23.376;2023-04-29T11:53:53;10.00;7.75;5.75
72307;PMS5003;60257;42.638;23.376;2023-04-29T11:56:22;11.00;8.25;6.00
72307;PMS5003;60257;42.638;23.376;2023-04-29T11:58:49;14.00;13.00;9.00
72307;PMS5003;60257;42.638;23.376;2023-04-29T12:01:19;10.00;10.00;8.00
72307;PMS5003;60257;42.638;23.376;2023-04-29T12:03:47;11.00;11.00;7.00
72307;PMS5003;60257;42.638;23.376;2023-04-29T12:06:13;9.25;8.75;6.00
72307;PMS5003;60257;42.638;23.376;2023-04-29T12:08:39;10.25;10.25;6.00
72307;PMS5003;60257;42.638;23.376;2023-04-29T12:11:05;7.75;7.75;4.75
72307;PMS5003;60257;42.638;23.376;2023-04-29T12:13:31;6.50;6.50;5.25
72307;PMS5003;60257;42.638;23.376;2023-04-29T12:16:00;6.50;6.50;4.75
72307;PMS5003;60257;42.638;23.376;2023-04-29T12:18:27;10.25;9.00;5.00
72307;PMS5003;60257;42.638;23.376;2023-04-29T12:20:54;5.50;4.00;3.75
72307;PMS5003;60257;42.638;23.376;2023-04-29T12:23:21;8.00;7.25;2.25
72307;PMS5003;60257;42.638;23.376;2023-04-29T12:25:48;12.00;9.75;7.00
72307;PMS5003;60257;42.638;23.376;2023-04-29T12:28:15;9.50;9.00;7.00
72307;PMS5003;60257;42.638;23.376;2023-04-29T12:30:45;8.75;8.75;7.00
72307;PMS5003;60257;42.638;23.376;2023-04-29T12:33:19;7.25;7.25;4.75
72307;PMS5003;60257;42.638;23.376;2023-04-29T12:35:52;8.00;8.00;6.00
72307;PMS5003;60257;42.638;23.376;2023-04-29T12:38:40;9.75;9.50;6.00
72307;PMS5003;60257;42.638;23.376;2023-04-29T12:41:06;7.25;7.25;4.25
72307;PMS5003;60257;42.638;23.376;2023-04-29T12:43:33;5.75;5.75;5.00
72307;PMS5003;60257;42.638;23.376;2023-04-29T12:46:05;9.00;8.75;6.00
72307;PMS5003;60257;42.638;23.376;2023-04-29T12:48:32;10.75;9.50;6.00
72307;PMS5003;60257;42.638;23.376;2023-04-29T12:50:59;8.50;8.00;5.75
72307;PMS5003;60257;42.638;23.376;2023-04-29T12:53:26;10.25;10.25;6.00
72307;PMS5003;60257;42.638;23.376;2023-04-29T12:55:53;8.25;8.25;6.00
72307;PMS5003;60257;42.638;23.376;2023-04-29T12:58:19;7.50;7.50;5.00
72307;PMS5003;60257;42.638;23.376;2023-04-29T13:00:45;9.00;6.75;5.50
72307;PMS5003;60257;42.638;23.376;2023-04-29T13:03:10;8.50;7.75;4.00
72307;PMS5003;60257;42.638;23.376;2023-04-29T13:05:36;8.25;6.75;4.00
72307;PMS5003;60257;42.638;23.376;2023-04-29T13:08:01;9.25;9.25;5.75
72307;PMS5003;60257;42.638;23.376;2023-04-29T13:10:30;9.50;9.50;5.75
72307;PMS5003;60257;42.638;23.376;2023-04-29T13:12:55;7.75;7.75;5.25
72307;PMS5003;60257;42.638;23.376;2023-04-29T13:15:21;10.00;10.00;5.50
72307;PMS5003;60257;42.638;23.376;2023-04-29T13:17:46;8.50;8.50;5.00
72307;PMS5003;60257;42.638;23.376;2023-04-29T13:20:11;8.00;7.50;6.00
72307;PMS5003;60257;42.638;23.376;2023-04-29T13:22:37;6.75;6.75;4.00
72307;PMS5003;60257;42.638;23.376;2023-04-29T13:25:03;7.00;7.00;4.00
72307;PMS5003;60257;42.638;23.376;2023-04-29T13:27:29;6.50;6.50;4.75
72307;PMS5003;60257;42.638;23.376;2023-04-29T13:29:55;9.50;8.25;5.50
72307;PMS5003;60257;42.638;23.376;2023-04-29T13:32:21;7.00;5.50;4.00
72307;PMS5003;60257;42.638;23.376;2023-04-29T13:34:49;7.25;7.25;4.25
72307;PMS5003;60257;42.638;23.376;2023-04-29T13:37:14;5.50;4.75;2.75
72307;PMS5003;60257;42.638;23.376;2023-04-29T13:39:41;6.50;6.50;3.00
72307;PMS5003;60257;42.638;23.376;2023-04-29T13:42:06;6.00;6.00;3.75
72307;PMS5003;60257;42.638;23.376;2023-04-29T13:44:32;7.50;6.50;4.75
72307;PMS5003;60257;42.638;23.376;2023-04-29T13:46:58;7.00;7.00;5.00
72307;PMS5003;60257;42.638;23.376;2023-04-29T13:49:23;7.50;6.50;3.75
72307;PMS5003;60257;42.638;23.376;2023-04-29T13:51:49;6.50;6.50;4.50
72307;PMS5003;60257;42.638;23.376;2023-04-29T13:54:14;6.25;6.25;3.25
72307;PMS5003;60257;42.638;23.376;2023-04-29T13:56:40;5.25;5.25;3.25
72307;PMS5003;60257;42.638;23.376;2023-04-29T13:59:07;7.00;7.00;5.00
72307;PMS5003;60257;42.638;23.376;2023-04-29T14:01:32;6.25;6.00;4.00
72307;PMS5003;60257;42.638;23.376;2023-04-29T14:03:57;4.25;4.25;3.25
72307;PMS5003;60257;42.638;23.376;2023-04-29T14:06:23;5.00;5.00;4.00
72307;PMS5003;60257;42.638;23.376;2023-04-29T14:08:48;5.25;5.25;3.25
72307;PMS5003;60257;42.638;23.376;2023-04-29T14:11:14;6.25;5.50;3.25
72307;PMS5003;60257;42.638;23.376;2023-04-29T14:13:41;6.00;6.00;3.25